• Join FlightAware (Why Join?)
  • Login
  • US Flag 
07:33AM EDT


 

Airport Tracker/Info


-or-


 

Live Flight TrackerFlight Track Log ✈ N135LR ✈ 09-Jul-2013 ✈ KFXE - SVMI / CCS

Flight Track Log - Related Links

Times and Time Zones

All times are in EDT time to prevent confusion due to time zone crossing. See the N135LR flight status page for this flight to view local times or setup timezone preferences in your user account.

Time Position Orientation Groundspeed Altitude Reporting Facility
EDT Latitude Longitude Course Direction KTS MPH feet Rate Location/Type
09:04AM 26.1978 -80.1586 85° East 159 183 700  Level Miami Center
09:04AM 26.2006 -80.1217 85° East 192 221 1,900 780 Climbing Miami Center
09:05AM 26.2064 -80.0547 84° East 200 230 2,000 1,260 Climbing Miami Center
09:06AM 26.2103 -79.9692 87° East 277 319 4,500 2,520 Climbing Miami Center
09:07AM 26.2139 -79.8858 87° East 277 319 7,100 2,700 Climbing Miami Center
09:08AM 26.2158 -79.7978 89° East 272 313 10,000 2,700 Climbing Miami Center
09:09AM 26.2175 -79.7122 89° East 272 313 12,500 2,400 Climbing Miami Center
09:10AM 26.2172 -79.6219 90° East 277 319 14,900 2,220 Climbing Miami Center
09:11AM 26.1958 -79.5358 105° East 283 326 17,000 1,800 Climbing Miami Center
09:12AM 26.1408 -79.4558 127° Southeast 288 331 18,600 1,740 Climbing Miami Center
09:13AM 26.0881 -79.3714 125° Southeast 313 360 20,500 1,800 Climbing Miami Center
09:14AM 26.0372 -79.2825 122° Southeast 331 381 22,300 1,860 Climbing Miami Center
09:15AM 25.9822 -79.1936 125° Southeast 341 392 24,300 1,800 Climbing Miami Center
09:16AM 25.9208 -79.1139 131° Southeast 341 392 25,900 1,500 Climbing Miami Center
09:17AM 25.8511 -79.0361 135° Southeast 341 392 27,300 1,380 Climbing Miami Center
09:18AM 25.7831 -78.9589 134° Southeast 346 398 28,700 1,140 Climbing Miami Center
09:19AM 25.7111 -78.8792 135° Southeast 355 409 29,600 900 Climbing Miami Center
09:20AM 25.6392 -78.7972 134° Southeast 366 421 30,500 960 Climbing Miami Center
09:21AM 25.5650 -78.7133 134° Southeast 372 428 31,600 1,200 Climbing Miami Center
09:22AM 25.4908 -78.6339 136° Southeast 372 428 32,900 1,260 Climbing Miami Center
09:23AM 25.4206 -78.5522 134° Southeast 366 421 34,200 1,140 Climbing Miami Center
09:24AM 25.3506 -78.4731 134° Southeast 366 421 35,200 900 Climbing Miami Center
09:25AM 25.2803 -78.3917 134° Southeast 366 421 36,000 1,020 Climbing Miami Center
09:26AM 25.2100 -78.3128 135° Southeast 366 421 37,300 1,140 Climbing Miami Center
09:27AM 25.1397 -78.2361 135° Southeast 361 415 38,300 780 Climbing Miami Center
09:28AM 25.0672 -78.1619 137° Southeast 356 410 38,900 300 Climbing Miami Center
09:29AM 24.9989 -78.0811 133° Southeast 356 410 38,900  Level Miami Center
09:30AM 24.9244 -78.0000 135° Southeast 356 410 39,000  Climbing Miami Center
09:31AM 24.8456 -77.9147 136° Southeast 374 430 39,000  Level Miami Center
09:32AM 24.7647 -77.8339 138° Southeast 380 437 39,000  Level Miami Center
09:33AM 24.6858 -77.7439 134° Southeast 392 451 39,000  Level Miami Center
09:34AM 24.6069 -77.6519 133° Southeast 403 464 39,000  Level Miami Center
09:35AM 24.5236 -77.5647 136° Southeast 408 470 39,000  Level Miami Center
09:36AM 24.4425 -77.4728 134° Southeast 408 470 39,000  Level Miami Center
09:37AM 24.3594 -77.3836 136° Southeast 408 470 39,000  Level Miami Center
09:38AM 24.2678 -77.2875 136° Southeast 413 475 39,000  Level Miami Center
09:39AM 24.1844 -77.1983 136° Southeast 413 475 39,000  Level Miami Center
09:40AM 24.1050 -77.1047 133° Southeast 413 475 39,000  Level Miami Center
09:41AM 24.0194 -77.0114 135° Southeast 418 481 39,000  Level Miami Center
09:42AM 23.9319 -76.9225 137° Southeast 418 481 39,000  Level Miami Center
09:43AM 23.8483 -76.8339 136° Southeast 423 487 39,000  Level Miami Center
09:45AM 23.6789 -76.6478 135° Southeast 423 487 39,000  Level Miami Center
09:46AM 23.5908 -76.5528 135° Southeast 428 493 39,000  Level Miami Center
09:47AM 23.5028 -76.4603 136° Southeast 428 493 39,000  Level Miami Center
09:48AM 23.4189 -76.3719 136° Southeast 428 493 39,000  Level Miami Center
09:49AM 23.3289 -76.2775 136° Southeast 433 498 39,000  Level Miami Center
09:50AM 23.2428 -76.1828 135° Southeast 433 498 39,000  Level Miami Center
09:51AM 23.1628 -76.0997 136° Southeast 433 498 39,000  Level Miami Center
09:52AM 23.0725 -76.0075 137° Southeast 433 498 39,000  Level Miami Center
09:53AM 22.9864 -75.9156 135° Southeast 433 498 39,000  Level Miami Center
09:54AM 22.8981 -75.8239 136° Southeast 433 498 39,000  Level Miami Center
09:55AM 22.8075 -75.7344 138° Southeast 433 498 39,000  Level Miami Center
09:56AM 22.7169 -75.6475 138° Southeast 433 498 39,000  Level Miami Center
09:57AM 22.6283 -75.5514 135° Southeast 439 505 39,000  Level Miami Center
09:58AM 22.5419 -75.4600 136° Southeast 439 505 39,000  Level Miami Center
09:59AM 22.4553 -75.3667 135° Southeast 439 505 39,000  Level Miami Center
10:00AM 22.3667 -75.2711 135° Southeast 439 505 39,000  Level Miami Center
10:01AM 22.2800 -75.1756 134° Southeast 433 498 39,000  Level Miami Center
10:02AM 22.1892 -75.0825 137° Southeast 433 498 39,000  Level Miami Center
10:03AM 22.0983 -74.9897 137° Southeast 433 498 39,000  Level Miami Center
10:04AM 22.0031 -74.9036 140° Southeast 443 510 39,000  Level Miami Center
10:05AM 21.9058 -74.8156 140° Southeast 454 522 39,000  Level Miami Center
10:06AM 21.8086 -74.7300 141° Southeast 454 522 39,000 -60 Level Miami Center
10:07AM 21.7197 -74.6375 136° Southeast 454 522 38,900 -60 Descending Miami Center
10:08AM 21.6244 -74.5497 139° Southeast 448 516 38,900  Level Miami Center
10:09AM 21.5292 -74.4644 140° Southeast 448 516 38,900  Level Miami Center
10:10AM 21.4336 -74.3769 140° Southeast 448 516 38,900  Level Miami Center
10:11AM 21.3342 -74.2919 141° Southeast 453 521 38,900  Level Miami Center
10:12AM 21.2386 -74.2000 138° Southeast 453 521 38,900  Level Miami Center
10:13AM 21.1433 -74.1131 140° Southeast 453 521 38,900  Level Miami Center
10:14AM 21.0500 -74.0303 140° Southeast 448 516 38,900  Level Miami Center
10:15AM 20.9522 -73.9436 140° Southeast 448 516 38,900  Level Miami Center
10:16AM 20.8589 -73.8589 140° Southeast 448 516 38,900  Level Miami Center
10:17AM 20.7611 -73.7703 140° Southeast 453 521 38,900  Level Miami Center
10:18AM 20.6656 -73.6836 140° Southeast 453 521 38,900  Level Miami Center
10:19AM 20.5697 -73.5972 140° Southeast 453 521 38,900  Level Miami Center
10:20AM 20.4742 -73.5131 140° Southeast 453 521 38,900  Level Miami Center
10:21AM 20.3783 -73.4247 139° Southeast 453 521 38,900  Level Miami Center
10:22AM 20.2783 -73.3389 141° Southeast 453 521 38,900  Level Miami Center
10:23AM 20.1867 -73.2528 139° Southeast 453 521 38,900  Level Miami Center
10:24AM 20.0806 -73.1806 147° Southeast 453 521 38,900  Level Miami Center
10:26AM 19.9719 -73.1180 152° Southeast  Level FlightAware Approximate
10:33AM 19.2754 -72.7306 153° Southeast  Level FlightAware Approximate
10:34AM 19.1755 -72.6760 153° Southeast  Level FlightAware Approximate
10:35AM 19.0757 -72.6216 153° Southeast  Level FlightAware Approximate
10:36AM 18.9764 -72.5660 152° Southeast  Level FlightAware Approximate
10:37AM 18.8771 -72.5104 152° Southeast  Level FlightAware Approximate
10:38AM 18.7779 -72.4548 152° Southeast  Level FlightAware Approximate
10:39AM 18.6786 -72.3993 152° Southeast  Level FlightAware Approximate
10:40AM 18.5788 -72.3449 153° Southeast  Level FlightAware Approximate
10:41AM 18.4787 -72.2911 153° Southeast  Level FlightAware Approximate
10:42AM 18.3815 -72.2320 148° Southeast  Level FlightAware Approximate
10:43AM 18.2866 -72.1687 148° Southeast  Level FlightAware Approximate
10:44AM 18.1917 -72.1055 148° Southeast  Level FlightAware Approximate
10:45AM 18.0955 -72.0445 151° Southeast  Level FlightAware Approximate
10:46AM 17.9972 -71.9872 151° Southeast  Level FlightAware Approximate
10:47AM 17.8998 -71.9286 149° Southeast  Level FlightAware Approximate
10:48AM 17.8037 -71.8674 149° Southeast  Level FlightAware Approximate
10:49AM 17.7076 -71.8063 149° Southeast  Level FlightAware Approximate
10:50AM 17.6116 -71.7452 149° Southeast  Level FlightAware Approximate
10:51AM 17.5182 -71.6806 150° Southeast  Level FlightAware Approximate
10:52AM 17.4211 -71.6214 150° Southeast  Level FlightAware Approximate
10:53AM 17.3239 -71.5623 150° Southeast  Level FlightAware Approximate
10:54AM 17.2268 -71.5032 150° Southeast  Level FlightAware Approximate
10:55AM 17.1299 -71.4437 149° Southeast  Level FlightAware Approximate
10:56AM 17.0335 -71.3834 149° Southeast  Level FlightAware Approximate
10:57AM 16.9370 -71.3231 149° Southeast  Level FlightAware Approximate
10:58AM 16.8404 -71.2634 150° Southeast  Level FlightAware Approximate
10:59AM 16.7435 -71.2039 150° Southeast  Level FlightAware Approximate
11:00AM 16.6466 -71.1446 150° Southeast  Level FlightAware Approximate
11:01AM 16.5497 -71.0853 150° Southeast  Level FlightAware Approximate
11:02AM 16.4528 -71.0260 150° Southeast  Level FlightAware Approximate
11:03AM 16.3559 -70.9668 150° Southeast  Level FlightAware Approximate
11:04AM 16.2590 -70.9077 150° Southeast  Level FlightAware Approximate
11:05AM 16.1620 -70.8486 150° Southeast  Level FlightAware Approximate
11:06AM 16.0651 -70.7896 150° Southeast  Level FlightAware Approximate
11:07AM 15.9664 -70.7340 155° Southeast  Level FlightAware Approximate
11:08AM 15.8642 -70.6855 155° Southeast  Level FlightAware Approximate
11:09AM 15.7620 -70.6371 155° Southeast  Level FlightAware Approximate
11:10AM 15.6598 -70.5887 155° Southeast  Level FlightAware Approximate
11:11AM 15.5575 -70.5403 155° Southeast  Level FlightAware Approximate
11:12AM 15.4553 -70.4920 156° South  Level FlightAware Approximate
11:13AM 15.3531 -70.4437 156° South  Level FlightAware Approximate
11:14AM 15.2508 -70.3955 156° South  Level FlightAware Approximate
11:15AM 15.1485 -70.3474 156° South  Level FlightAware Approximate
11:16AM 15.0460 -70.2997 156° South  Level FlightAware Approximate
11:17AM 14.9431 -70.2531 156° South  Level FlightAware Approximate
11:18AM 14.8402 -70.2065 156° South  Level FlightAware Approximate
11:19AM 14.7373 -70.1599 156° South  Level FlightAware Approximate
11:20AM 14.6344 -70.1133 156° South  Level FlightAware Approximate
11:21AM 14.5315 -70.0668 156° South  Level FlightAware Approximate
11:22AM 14.4285 -70.0204 156° South  Level FlightAware Approximate
11:23AM 14.3258 -69.9735 156° South  Level FlightAware Approximate
11:24AM 14.2232 -69.9264 156° South  Level FlightAware Approximate
11:25AM 14.1205 -69.8793 156° South  Level FlightAware Approximate
11:26AM 14.0179 -69.8323 156° South  Level FlightAware Approximate
11:27AM 13.9152 -69.7853 156° South  Level FlightAware Approximate
11:28AM 13.8125 -69.7383 156° South  Level FlightAware Approximate
11:29AM 13.7099 -69.6914 156° South  Level FlightAware Approximate
11:30AM 13.6072 -69.6445 156° South  Level FlightAware Approximate
11:31AM 13.5045 -69.5977 156° South  Level FlightAware Approximate
11:32AM 13.4018 -69.5509 156° South  Level FlightAware Approximate
11:33AM 13.2991 -69.5041 156° South  Level FlightAware Approximate
11:34AM 13.1964 -69.4574 156° South  Level FlightAware Approximate
11:35AM 13.0936 -69.4107 156° South  Level FlightAware Approximate
11:36AM 12.9909 -69.3643 156° South  Level FlightAware Approximate
11:37AM 12.8879 -69.3181 156° South  Level FlightAware Approximate
11:38AM 12.7850 -69.2719 156° South  Level FlightAware Approximate
11:39AM 12.6821 -69.2258 156° South  Level FlightAware Approximate
11:40AM 12.5792 -69.1797 156° South  Level FlightAware Approximate
11:41AM 12.4764 -69.1332 156° South  Level FlightAware Approximate
11:42AM 12.3737 -69.0865 156° South  Level FlightAware Approximate
11:43AM 12.2711 -69.0398 156° South  Level FlightAware Approximate
11:44AM 12.1691 -68.9918 151° Southeast  Level FlightAware Approximate
11:45AM 12.0710 -68.9358 151° Southeast  Level FlightAware Approximate
11:46AM 11.9723 -68.8809 151° Southeast  Level FlightAware Approximate
11:47AM 11.8736 -68.8260 151° Southeast  Level FlightAware Approximate
11:48AM 11.7749 -68.7713 151° Southeast  Level FlightAware Approximate
11:49AM 11.6946 -68.6916 133° Southeast  Level FlightAware Approximate
11:50AM 11.6174 -68.6084 133° Southeast  Level FlightAware Approximate
11:51AM 11.5401 -68.5252 133° Southeast  Level FlightAware Approximate
11:52AM 11.4710 -68.4352 130° Southeast  Level FlightAware Approximate
11:53AM 11.3980 -68.3480 136° Southeast  Level FlightAware Approximate
11:54AM 11.3178 -68.2678 136° Southeast  Level FlightAware Approximate
11:55AM 11.2403 -68.1849 133° Southeast  Level FlightAware Approximate
11:56AM 11.1636 -68.1012 133° Southeast  Level FlightAware Approximate
11:57AM 11.0873 -68.0173 132° Southeast  Level FlightAware Approximate
11:58AM 11.0114 -67.9329 132° Southeast  Level FlightAware Approximate
11:59AM 10.9355 -67.8485 133° Southeast  Level FlightAware Approximate
12:00PM 10.8595 -67.7642 133° Southeast  Level FlightAware Approximate
12:01PM 10.7845 -67.6791 131° Southeast  Level FlightAware Approximate
12:02PM 10.7090 -67.5949 147° Southeast  Level FlightAware Approximate
12:03PM 10.6667 -67.5039 90° East  Level FlightAware Approximate
12:04PM 10.6594 -67.3927 135° Southeast  Level FlightAware Approximate
12:05PM 10.6400 -67.2829 96° East  Level FlightAware Approximate
12:06PM 10.6258 -67.1699 104° East  Level FlightAware Approximate
12:07PM 10.6167 -67.0568 90° East  Level FlightAware Approximate
12:08PM 10.6031 -66.9906 90° East  Level Estimated
12:09PM 10.6031 -66.9906 90° East  Level Estimated
12:10PM 10.6031 -66.9906 90° East  Level Estimated
12:11PM 10.6031 -66.9906 90° East  Level Estimated
12:12PM 10.6031 -66.9906 90° East  Level Estimated
12:13PM 10.6031 -66.9906 90° East  Level Estimated
12:14PM 10.6031 -66.9906 90° East  Level Estimated
12:15PM 10.6031 -66.9906 90° East  Level Estimated
12:16PM 10.6031 -66.9906 90° East  Level Estimated
12:17PM 10.6031 -66.9906 90° East  Level Estimated
12:18PM 10.6031 -66.9906 90° East  Level Estimated
12:19PM 10.6031 -66.9906 90° East  Level Estimated
12:20PM 10.6031 -66.9906 90° East  Level Estimated
12:21PM 10.6031 -66.9906 90° East  Level Estimated
12:22PM 10.6031 -66.9906 90° East  Level Estimated
12:23PM 10.6031 -66.9906 90° East  Level Estimated